createdAt,value
2023-06-18T00:00:28.455Z,14.68
2023-06-18T00:02:55.874Z,14.27
2023-06-18T00:05:23.145Z,10.63
2023-06-18T00:07:50.539Z,13.40
2023-06-18T00:10:17.675Z,12.50
2023-06-18T00:12:44.881Z,11.40
2023-06-18T00:15:12.253Z,11.43
2023-06-18T00:17:39.492Z,12.50
2023-06-18T00:20:07.118Z,12.57
2023-06-18T00:22:39.227Z,13.50
2023-06-18T00:25:07.274Z,13.07
2023-06-18T00:27:34.560Z,11.57
2023-06-18T00:30:01.947Z,13.15
2023-06-18T00:32:29.522Z,13.05
2023-06-18T00:34:56.682Z,12.27
2023-06-18T00:37:27.216Z,12.00
2023-06-18T00:39:54.441Z,11.35
2023-06-18T00:42:22.537Z,11.82
2023-06-18T00:44:49.756Z,12.50
2023-06-18T00:47:18.762Z,11.20
2023-06-18T00:49:46.034Z,12.30
2023-06-18T00:52:16.472Z,10.48
2023-06-18T00:54:45.635Z,11.13
2023-06-18T00:57:15.269Z,13.60
2023-06-18T00:59:46.213Z,12.25
2023-06-18T01:02:14.371Z,10.43
2023-06-18T01:04:43.215Z,10.57
2023-06-18T01:07:14.350Z,11.43
2023-06-18T01:09:43.833Z,13.43
2023-06-18T01:12:11.632Z,11.02
2023-06-18T01:14:38.923Z,9.63
2023-06-18T01:17:08.219Z,11.13
2023-06-18T01:19:45.154Z,10.30
2023-06-18T01:22:19.541Z,10.48
2023-06-18T01:24:49.946Z,11.98
2023-06-18T01:27:17.626Z,14.38
2023-06-18T01:29:45.173Z,10.50
2023-06-18T01:32:12.336Z,13.02
2023-06-18T01:34:39.915Z,9.77
2023-06-18T01:37:25.964Z,11.00
2023-06-18T01:40:02.168Z,11.77
2023-06-18T01:42:32.652Z,9.80
2023-06-18T01:45:04.024Z,10.60
2023-06-18T01:47:31.699Z,11.00
2023-06-18T01:50:00.812Z,10.25
2023-06-18T01:52:31.036Z,11.18
2023-06-18T01:55:02.530Z,10.63
2023-06-18T01:57:30.120Z,10.98
2023-06-18T01:59:57.317Z,9.50
2023-06-18T02:02:24.573Z,10.65
2023-06-18T02:04:51.800Z,10.35
2023-06-18T02:07:19.040Z,9.23
2023-06-18T02:09:46.259Z,9.13
2023-06-18T02:12:13.421Z,11.07
2023-06-18T02:14:40.581Z,8.55
2023-06-18T02:17:07.889Z,11.15
2023-06-18T02:19:35.532Z,9.82
2023-06-18T02:22:02.672Z,12.30
2023-06-18T02:24:29.868Z,9.98
2023-06-18T02:26:57.258Z,10.25
2023-06-18T02:29:24.400Z,10.95
2023-06-18T02:31:51.538Z,10.25
2023-06-18T02:34:19.588Z,9.07
2023-06-18T02:36:48.320Z,9.85
2023-06-18T02:39:16.122Z,8.95
2023-06-18T02:41:43.292Z,9.13
2023-06-18T02:44:10.457Z,11.30
2023-06-18T02:46:37.702Z,9.27
2023-06-18T02:49:04.864Z,9.68
2023-06-18T02:51:32.105Z,11.30
2023-06-18T02:54:00.406Z,10.65
2023-06-18T02:56:29.581Z,8.88
2023-06-18T02:58:57.254Z,9.20
2023-06-18T03:01:25.925Z,9.80
2023-06-18T03:03:54.910Z,10.73
2023-06-18T03:06:22.118Z,8.48
2023-06-18T03:08:49.304Z,9.90
2023-06-18T03:11:16.538Z,9.52
2023-06-18T03:13:43.686Z,10.35
2023-06-18T03:16:10.963Z,9.95
2023-06-18T03:18:38.536Z,8.95
2023-06-18T03:21:06.016Z,10.05
2023-06-18T03:23:33.209Z,9.30
2023-06-18T03:26:00.413Z,9.85
2023-06-18T03:28:27.615Z,10.27
2023-06-18T03:30:54.769Z,10.25
2023-06-18T03:33:22.553Z,10.75
2023-06-18T03:35:51.120Z,11.38
2023-06-18T03:38:18.319Z,8.23
2023-06-18T03:40:45.642Z,10.38
2023-06-18T03:43:12.773Z,11.45
2023-06-18T03:45:40.181Z,9.52
2023-06-18T03:48:07.425Z,9.13
2023-06-18T03:50:34.720Z,10.13
2023-06-18T03:53:02.268Z,9.75
2023-06-18T03:55:29.467Z,9.02
2023-06-18T03:57:56.712Z,11.25
2023-06-18T04:00:24.100Z,8.80
2023-06-18T04:02:52.792Z,9.32
2023-06-18T04:05:20.026Z,9.05
2023-06-18T04:07:47.191Z,9.07
2023-06-18T04:10:14.352Z,8.48
2023-06-18T04:12:41.815Z,9.77
2023-06-18T04:15:10.359Z,10.23
2023-06-18T04:17:42.015Z,9.23
2023-06-18T04:20:10.164Z,8.25
2023-06-18T04:22:37.456Z,8.80
2023-06-18T04:25:04.673Z,9.90
2023-06-18T04:27:32.579Z,8.68
2023-06-18T04:29:59.746Z,8.65
2023-06-18T04:32:26.986Z,9.93
2023-06-18T04:34:54.148Z,10.23
2023-06-18T04:37:21.336Z,11.15
2023-06-18T04:39:48.485Z,8.05
2023-06-18T04:42:16.182Z,8.52
2023-06-18T04:44:43.309Z,9.65
2023-06-18T04:47:10.692Z,10.05
2023-06-18T04:49:37.871Z,10.80
2023-06-18T04:52:05.273Z,9.98
2023-06-18T04:54:32.469Z,8.00
2023-06-18T04:56:59.611Z,8.85
2023-06-18T04:59:26.803Z,8.38
2023-06-18T05:01:53.984Z,8.07
2023-06-18T05:04:21.169Z,9.70
2023-06-18T05:06:48.374Z,7.28
2023-06-18T05:09:16.355Z,8.05
2023-06-18T05:11:43.510Z,7.80
2023-06-18T05:14:10.784Z,8.02
2023-06-18T05:16:37.964Z,8.13
2023-06-18T05:19:05.732Z,8.20
2023-06-18T05:21:33.028Z,8.43
2023-06-18T05:24:00.245Z,8.70
2023-06-18T05:26:27.531Z,7.60
2023-06-18T05:28:54.797Z,8.73
2023-06-18T05:31:21.974Z,10.80
2023-06-18T05:33:49.282Z,9.27
2023-06-18T05:36:16.516Z,7.72
2023-06-18T05:38:43.696Z,7.75
2023-06-18T05:41:10.875Z,11.20
2023-06-18T05:43:39.337Z,8.43
2023-06-18T05:46:06.713Z,7.40
2023-06-18T05:48:33.930Z,8.13
2023-06-18T05:51:01.265Z,8.75
2023-06-18T05:53:28.742Z,7.50
2023-06-18T05:55:55.945Z,6.90
2023-06-18T05:58:25.262Z,8.70
2023-06-18T06:00:52.954Z,7.53
2023-06-18T06:03:20.135Z,8.88
2023-06-18T06:05:47.374Z,9.48
2023-06-18T06:08:14.557Z,9.38
2023-06-18T06:10:41.859Z,8.10
2023-06-18T06:13:09.087Z,7.78
2023-06-18T06:15:36.212Z,8.13
2023-06-18T06:18:04.055Z,8.88
2023-06-18T06:20:31.597Z,8.75
2023-06-18T06:22:58.836Z,9.45
2023-06-18T06:25:25.989Z,8.75
2023-06-18T06:27:53.161Z,9.30
2023-06-18T06:30:20.491Z,8.55
2023-06-18T06:32:47.862Z,8.07
2023-06-18T06:35:15.118Z,8.00
2023-06-18T06:37:42.358Z,9.48
2023-06-18T06:40:09.867Z,10.48
2023-06-18T06:42:37.169Z,8.50
2023-06-18T06:45:04.632Z,8.25
2023-06-18T06:47:31.881Z,8.82
2023-06-18T06:49:59.144Z,9.15
2023-06-18T06:52:26.269Z,9.27
2023-06-18T06:54:53.435Z,10.10
2023-06-18T06:57:20.705Z,8.27
2023-06-18T06:59:47.851Z,8.30
2023-06-18T07:02:15.112Z,7.82
2023-06-18T07:04:47.417Z,7.93
2023-06-18T07:07:14.990Z,7.68
2023-06-18T07:09:42.182Z,7.40
2023-06-18T07:12:09.593Z,8.32
2023-06-18T07:14:37.102Z,7.28
2023-06-18T07:17:04.481Z,7.10
2023-06-18T07:19:31.806Z,7.40
2023-06-18T07:21:58.936Z,6.53
2023-06-18T07:24:26.168Z,8.73
2023-06-18T07:26:53.421Z,7.32
2023-06-18T07:29:20.908Z,10.40
2023-06-18T07:31:48.123Z,6.32
2023-06-18T07:34:17.353Z,6.93
2023-06-18T07:36:44.581Z,7.68
2023-06-18T07:39:11.805Z,6.80
2023-06-18T07:41:39.008Z,6.90
2023-06-18T07:44:06.242Z,8.02
2023-06-18T07:46:35.004Z,7.13
2023-06-18T07:49:02.344Z,8.68
2023-06-18T07:51:29.514Z,9.45
2023-06-18T07:53:56.692Z,6.70
2023-06-18T07:56:25.661Z,7.13
2023-06-18T07:58:52.913Z,6.97
2023-06-18T08:01:20.236Z,5.97
2023-06-18T08:03:47.446Z,6.45
2023-06-18T08:06:14.670Z,8.30
2023-06-18T08:08:41.922Z,6.15
2023-06-18T08:11:09.163Z,5.28
2023-06-18T08:13:36.326Z,6.18
2023-06-18T08:16:03.567Z,9.52
2023-06-18T08:18:31.087Z,10.77
2023-06-18T08:20:58.273Z,6.32
2023-06-18T08:23:25.550Z,6.60
2023-06-18T08:25:52.791Z,5.70
2023-06-18T08:28:19.964Z,5.85
2023-06-18T08:30:47.172Z,6.68
2023-06-18T08:33:14.286Z,6.88
2023-06-18T08:35:41.507Z,5.50
2023-06-18T08:38:08.734Z,6.30
2023-06-18T08:40:49.399Z,6.97
2023-06-18T08:43:22.680Z,6.05
2023-06-18T08:45:53.212Z,6.20
2023-06-18T08:48:30.940Z,6.78
2023-06-18T08:51:06.477Z,6.03
2023-06-18T08:53:40.074Z,6.65
2023-06-18T08:56:08.591Z,6.75
2023-06-18T08:58:40.403Z,6.47
2023-06-18T09:01:08.643Z,8.27
2023-06-18T09:03:38.586Z,7.72
2023-06-18T09:06:06.358Z,8.55
2023-06-18T09:08:34.129Z,7.93
2023-06-18T09:11:01.870Z,9.23
2023-06-18T09:13:29.040Z,6.75
2023-06-18T09:15:56.846Z,7.97
2023-06-18T09:18:26.007Z,6.72
2023-06-18T09:20:54.271Z,8.57
2023-06-18T09:23:21.534Z,7.57
2023-06-18T09:25:55.288Z,7.47
2023-06-18T09:28:22.683Z,7.35
2023-06-18T09:30:51.581Z,8.07
2023-06-18T09:33:28.016Z,6.32
2023-06-18T09:36:01.374Z,8.20
2023-06-18T09:38:35.800Z,6.65
2023-06-18T09:43:36.619Z,9.38
2023-06-18T09:46:12.990Z,6.60
2023-06-18T09:48:42.041Z,7.43
2023-06-18T09:51:09.599Z,7.88
2023-06-18T09:53:37.035Z,7.72
2023-06-18T09:56:10.597Z,6.95
2023-06-18T09:58:55.884Z,8.00
2023-06-18T10:01:23.186Z,9.02
2023-06-18T10:03:50.551Z,7.22
2023-06-18T10:06:21.313Z,8.77
2023-06-18T10:08:49.630Z,9.05
2023-06-18T10:11:17.387Z,7.50
2023-06-18T10:13:44.497Z,7.03
2023-06-18T10:16:13.726Z,7.15
2023-06-18T10:18:46.689Z,7.38
2023-06-18T10:21:14.260Z,7.70
2023-06-18T10:23:41.600Z,7.22
2023-06-18T10:26:09.854Z,7.10
2023-06-18T10:28:37.451Z,7.10
2023-06-18T10:31:06.072Z,6.95
2023-06-18T10:33:35.464Z,6.95
2023-06-18T10:36:03.260Z,8.52
2023-06-18T10:38:30.666Z,8.88
2023-06-18T10:41:10.119Z,7.40
2023-06-18T10:43:39.951Z,7.47
2023-06-18T10:46:11.271Z,7.57
2023-06-18T10:48:38.677Z,7.22
2023-06-18T10:51:18.866Z,7.35
2023-06-18T10:53:47.006Z,7.20
2023-06-18T10:56:17.293Z,9.73
2023-06-18T10:58:44.581Z,8.77
2023-06-18T11:01:29.724Z,8.60
2023-06-18T11:04:03.970Z,7.07
2023-06-18T11:06:31.392Z,7.57
2023-06-18T11:08:58.627Z,9.25
2023-06-18T11:11:26.877Z,6.82
2023-06-18T11:13:56.332Z,6.63
2023-06-18T11:16:24.316Z,7.43
2023-06-18T11:18:55.578Z,9.98
2023-06-18T11:21:22.993Z,9.60
2023-06-18T11:23:51.199Z,7.72
2023-06-18T11:26:19.549Z,6.97
2023-06-18T11:28:49.885Z,7.45
2023-06-18T11:31:17.139Z,8.23
2023-06-18T11:33:50.964Z,7.35
2023-06-18T11:36:20.732Z,7.78
2023-06-18T11:38:49.392Z,7.65
2023-06-18T11:41:21.523Z,7.15
2023-06-18T11:43:51.046Z,11.25
2023-06-18T11:46:50.865Z,6.82
2023-06-18T11:49:18.130Z,7.60
2023-06-18T11:51:45.606Z,7.50
2023-06-18T11:54:12.857Z,8.02
2023-06-18T11:56:40.062Z,8.45
2023-06-18T11:59:07.418Z,9.38
2023-06-18T12:01:34.657Z,7.53
2023-06-18T12:04:05.483Z,6.97
2023-06-18T12:06:32.931Z,8.02
2023-06-18T12:09:10.197Z,7.10
2023-06-18T12:11:56.072Z,8.55
2023-06-18T12:14:27.542Z,10.05
2023-06-18T12:16:57.761Z,8.65
2023-06-18T12:19:25.646Z,8.45
2023-06-18T12:21:52.923Z,7.88
2023-06-18T12:24:20.151Z,9.07
2023-06-18T12:26:47.364Z,7.75
2023-06-18T12:29:14.557Z,8.60
2023-06-18T12:31:41.809Z,7.57
2023-06-18T12:34:23.615Z,8.65
2023-06-18T12:36:51.349Z,7.30
2023-06-18T12:39:18.538Z,8.45
2023-06-18T12:41:45.922Z,7.90
2023-06-18T12:44:14.382Z,8.68
2023-06-18T12:46:45.018Z,7.35
2023-06-18T12:49:15.848Z,7.82
2023-06-18T12:51:43.570Z,8.05
2023-06-18T12:54:18.461Z,7.60
2023-06-18T12:56:52.390Z,8.07
2023-06-18T12:59:20.202Z,7.15
2023-06-18T13:01:48.296Z,10.35
2023-06-18T13:04:17.314Z,7.65
2023-06-18T13:06:44.801Z,8.93
2023-06-18T13:09:12.002Z,7.93
2023-06-18T13:11:39.394Z,9.73
2023-06-18T13:14:11.862Z,7.22
2023-06-18T13:16:45.715Z,10.48
2023-06-18T13:19:12.959Z,8.30
2023-06-18T13:21:41.011Z,8.15
2023-06-18T13:24:08.312Z,8.05
2023-06-18T13:26:35.792Z,7.60
2023-06-18T13:29:03.861Z,9.02
2023-06-18T13:31:31.037Z,7.72
2023-06-18T13:33:58.186Z,8.68
2023-06-18T13:36:25.800Z,7.88
2023-06-18T13:38:53.035Z,7.53
2023-06-18T13:41:20.278Z,7.43
2023-06-18T13:43:47.417Z,7.63
2023-06-18T13:46:14.647Z,8.13
2023-06-18T13:48:42.564Z,7.85
2023-06-18T13:51:09.813Z,8.95
2023-06-18T13:53:36.957Z,8.13
2023-06-18T13:56:04.307Z,8.57
2023-06-18T13:58:31.702Z,7.85
2023-06-18T14:00:58.856Z,7.97
2023-06-18T14:03:26.705Z,8.50
2023-06-18T14:05:54.109Z,7.55
2023-06-18T14:08:21.318Z,8.13
2023-06-18T14:10:49.002Z,8.43
2023-06-18T14:13:16.310Z,9.02
2023-06-18T14:15:43.547Z,7.00
2023-06-18T14:18:10.872Z,8.40
2023-06-18T14:20:38.506Z,7.90
2023-06-18T14:23:05.624Z,8.15
2023-06-18T14:25:32.773Z,8.27
2023-06-18T14:28:00.465Z,7.97
2023-06-18T14:30:28.904Z,8.27
2023-06-18T14:32:56.184Z,9.52
2023-06-18T14:35:23.614Z,10.07
2023-06-18T14:37:51.201Z,9.23
2023-06-18T14:40:18.366Z,7.65
2023-06-18T14:42:45.719Z,8.43
2023-06-18T14:45:12.958Z,8.35
2023-06-18T14:47:42.349Z,7.28
2023-06-18T14:50:10.899Z,8.18
2023-06-18T14:52:38.304Z,8.18
2023-06-18T14:55:06.248Z,8.02
2023-06-18T14:57:33.385Z,8.85
2023-06-18T15:00:00.725Z,8.27
2023-06-18T15:02:30.161Z,7.95
2023-06-18T15:04:58.517Z,8.00
2023-06-18T15:07:26.207Z,7.78
2023-06-18T15:09:53.372Z,7.70
2023-06-18T15:12:20.700Z,12.73
2023-06-18T15:14:48.225Z,8.38
2023-06-18T15:17:15.602Z,9.02
2023-06-18T15:19:43.761Z,7.63
2023-06-18T15:22:11.046Z,8.60
2023-06-18T15:24:38.319Z,7.38
2023-06-18T15:27:05.861Z,9.73
2023-06-18T15:29:33.861Z,7.88
2023-06-18T15:32:01.158Z,7.90
2023-06-18T15:34:28.321Z,9.98
2023-06-18T15:36:56.484Z,7.93
2023-06-18T15:39:24.526Z,8.18
2023-06-18T15:41:51.711Z,9.98
2023-06-18T15:44:18.904Z,8.20
2023-06-18T15:46:46.161Z,7.38
2023-06-18T15:49:13.405Z,11.00
2023-06-18T15:51:40.572Z,8.63
2023-06-18T15:54:07.706Z,8.35
2023-06-18T15:56:34.870Z,9.75
2023-06-18T15:59:01.994Z,12.38
2023-06-18T16:01:29.182Z,10.13
2023-06-18T16:03:56.401Z,9.32
2023-06-18T16:06:23.548Z,8.27
2023-06-18T16:08:50.870Z,8.05
2023-06-18T16:11:18.036Z,9.35
2023-06-18T16:13:45.322Z,9.20
2023-06-18T16:16:12.626Z,8.45
2023-06-18T16:18:39.821Z,7.88
2023-06-18T16:21:08.594Z,6.93
2023-06-18T16:23:43.013Z,8.57
2023-06-18T16:26:10.214Z,7.57
2023-06-18T16:28:37.379Z,8.48
2023-06-18T16:31:05.089Z,9.02
2023-06-18T16:33:32.232Z,8.48
2023-06-18T16:35:59.438Z,7.88
2023-06-18T16:38:26.592Z,7.60
2023-06-18T16:40:53.732Z,9.90
2023-06-18T16:43:21.260Z,9.98
2023-06-18T16:45:48.629Z,9.23
2023-06-18T16:48:15.972Z,6.95
2023-06-18T16:50:43.201Z,7.78
2023-06-18T16:53:10.527Z,13.57
2023-06-18T16:55:38.814Z,8.38
2023-06-18T16:58:09.561Z,11.52
2023-06-18T17:00:37.283Z,10.65
2023-06-18T17:03:05.225Z,11.15
2023-06-18T17:05:32.465Z,8.38
2023-06-18T17:07:59.618Z,8.65
2023-06-18T17:10:26.768Z,7.90
2023-06-18T17:12:53.946Z,10.05
2023-06-18T17:15:21.386Z,8.40
2023-06-18T17:17:48.703Z,7.85
2023-06-18T17:20:16.376Z,9.32
2023-06-18T17:22:43.596Z,9.07
2023-06-18T17:25:10.981Z,9.07
2023-06-18T17:27:38.158Z,7.05
2023-06-18T17:30:05.980Z,7.97
2023-06-18T17:32:33.935Z,7.72
2023-06-18T17:35:01.115Z,10.80
2023-06-18T17:37:28.355Z,8.20
2023-06-18T17:39:55.511Z,7.32
2023-06-18T17:42:22.749Z,10.45
2023-06-18T17:44:49.927Z,9.65
2023-06-18T17:47:17.638Z,7.90
2023-06-18T17:49:49.766Z,9.57
2023-06-18T17:52:17.019Z,7.68
2023-06-18T17:54:44.370Z,7.72
2023-06-18T17:57:11.539Z,7.78
2023-06-18T17:59:38.852Z,8.45
2023-06-18T18:02:06.391Z,7.80
2023-06-18T18:04:35.572Z,7.20
2023-06-18T18:07:03.070Z,7.93
2023-06-18T18:09:30.262Z,9.88
2023-06-18T18:11:57.414Z,9.13
2023-06-18T18:14:24.703Z,8.60
2023-06-18T18:16:51.914Z,8.48
2023-06-18T18:19:19.176Z,9.30
2023-06-18T18:21:46.312Z,8.18
2023-06-18T18:24:13.534Z,7.63
2023-06-18T18:26:48.396Z,11.63
2023-06-18T18:29:16.782Z,9.23
2023-06-18T18:31:44.401Z,11.38
2023-06-18T18:34:12.552Z,9.60
2023-06-18T18:36:40.276Z,9.52
2023-06-18T18:39:07.938Z,8.45
2023-06-18T18:41:35.110Z,8.25
2023-06-18T18:44:02.335Z,9.75
2023-06-18T18:46:29.484Z,10.63
2023-06-18T18:48:56.651Z,7.95
2023-06-18T18:51:23.800Z,8.43
2023-06-18T18:53:51.263Z,8.30
2023-06-18T18:56:19.045Z,8.60
2023-06-18T18:58:46.377Z,8.55
2023-06-18T19:01:13.517Z,10.38
2023-06-18T19:03:42.057Z,9.70
2023-06-18T19:06:10.141Z,9.55
2023-06-18T19:08:37.382Z,8.18
2023-06-18T19:11:04.586Z,8.82
2023-06-18T19:13:32.252Z,8.38
2023-06-18T19:15:59.428Z,8.52
2023-06-18T19:18:26.616Z,7.75
2023-06-18T19:20:53.824Z,9.40
2023-06-18T19:23:21.045Z,11.68
2023-06-18T19:25:48.347Z,9.45
2023-06-18T19:28:15.494Z,9.32
2023-06-18T19:30:42.974Z,8.75
2023-06-18T19:33:10.668Z,9.07
2023-06-18T19:35:37.998Z,8.52
2023-06-18T19:38:05.212Z,8.32
2023-06-18T19:40:32.469Z,9.02
2023-06-18T19:42:59.621Z,8.65
2023-06-18T19:45:27.248Z,9.68
2023-06-18T19:47:54.481Z,8.65
2023-06-18T19:50:24.962Z,9.90
2023-06-18T19:52:52.517Z,8.38
2023-06-18T19:55:21.151Z,8.48
2023-06-18T19:57:48.448Z,10.25
2023-06-18T20:00:16.991Z,8.77
2023-06-18T20:02:44.414Z,11.25
2023-06-18T20:05:12.155Z,9.15
2023-06-18T20:07:39.356Z,10.48
2023-06-18T20:10:07.120Z,8.73
2023-06-18T20:12:34.352Z,8.98
2023-06-18T20:15:01.566Z,8.80
2023-06-18T20:17:28.806Z,9.13
2023-06-18T20:19:56.064Z,9.25
2023-06-18T20:22:23.211Z,11.52
2023-06-18T20:24:50.385Z,8.80
2023-06-18T20:27:17.649Z,9.30
2023-06-18T20:29:45.797Z,10.60
2023-06-18T20:32:12.958Z,11.13
2023-06-18T20:34:40.213Z,8.95
2023-06-18T20:37:08.134Z,12.63
2023-06-18T20:39:35.640Z,9.13
2023-06-18T20:42:03.091Z,9.35
2023-06-18T20:44:30.261Z,12.07
2023-06-18T20:46:57.675Z,10.18
2023-06-18T20:49:24.971Z,12.35
2023-06-18T20:51:52.136Z,9.77
2023-06-18T20:54:19.358Z,10.63
2023-06-18T20:56:46.656Z,9.32
2023-06-18T20:59:13.844Z,9.63
2023-06-18T21:01:41.138Z,9.57
2023-06-18T21:04:08.428Z,10.23
2023-06-18T21:06:35.587Z,12.20
2023-06-18T21:09:02.929Z,11.30
2023-06-18T21:11:30.439Z,11.40
2023-06-18T21:13:57.605Z,10.95
2023-06-18T21:16:24.842Z,10.98
2023-06-18T21:18:52.222Z,11.65
2023-06-18T21:21:19.444Z,11.10
2023-06-18T21:23:46.605Z,11.13
2023-06-18T21:26:14.726Z,12.45
2023-06-18T21:28:42.329Z,10.10
2023-06-18T21:31:11.696Z,10.00
2023-06-18T21:33:38.921Z,10.52
2023-06-18T21:36:06.175Z,12.88
2023-06-18T21:38:33.320Z,11.80
2023-06-18T21:41:00.616Z,9.43
2023-06-18T21:43:27.764Z,10.02
2023-06-18T21:45:54.935Z,11.38
2023-06-18T21:48:22.154Z,14.68
2023-06-18T21:50:49.324Z,10.18
2023-06-18T21:53:17.446Z,10.63
2023-06-18T21:55:45.558Z,10.60
2023-06-18T21:58:12.938Z,11.10
2023-06-18T22:00:40.171Z,9.68
2023-06-18T22:03:07.559Z,12.60
2023-06-18T22:05:34.916Z,11.50
2023-06-18T22:08:11.814Z,12.73
2023-06-18T22:10:43.124Z,11.10
2023-06-18T22:13:11.448Z,9.05
2023-06-18T22:15:38.867Z,9.55
2023-06-18T22:18:06.133Z,9.75
2023-06-18T22:20:33.290Z,9.77
2023-06-18T22:23:00.522Z,11.77
2023-06-18T22:25:27.693Z,10.48
2023-06-18T22:27:54.851Z,9.85
2023-06-18T22:30:22.384Z,9.65
2023-06-18T22:32:50.099Z,10.40
2023-06-18T22:35:17.958Z,9.82
2023-06-18T22:37:45.172Z,11.27
2023-06-18T22:40:12.720Z,10.55
2023-06-18T22:42:39.884Z,13.30
2023-06-18T22:45:07.377Z,11.18
2023-06-18T22:47:34.689Z,13.00
2023-06-18T22:50:01.852Z,11.98
2023-06-18T22:52:29.089Z,11.10
2023-06-18T22:54:56.247Z,13.05
2023-06-18T22:57:23.414Z,9.75
2023-06-18T22:59:50.581Z,12.23
2023-06-18T23:02:17.759Z,12.52
2023-06-18T23:04:44.953Z,11.60
2023-06-18T23:07:12.126Z,10.95
2023-06-18T23:09:39.334Z,12.85
2023-06-18T23:12:06.813Z,11.25
2023-06-18T23:14:34.505Z,9.88
2023-06-18T23:17:01.739Z,9.50
2023-06-18T23:19:28.974Z,9.10
2023-06-18T23:21:56.164Z,9.30
2023-06-18T23:24:23.332Z,9.93
2023-06-18T23:26:50.595Z,10.25
2023-06-18T23:29:20.363Z,10.80
2023-06-18T23:31:49.286Z,11.48
2023-06-18T23:34:16.606Z,9.55
2023-06-18T23:36:43.796Z,10.30
2023-06-18T23:39:10.916Z,10.57
2023-06-18T23:41:38.163Z,11.13
2023-06-18T23:44:05.503Z,11.52
2023-06-18T23:46:32.692Z,10.88
2023-06-18T23:49:00.077Z,12.25
2023-06-18T23:51:27.324Z,10.48
2023-06-18T23:53:54.516Z,10.68
2023-06-18T23:56:21.649Z,11.32
2023-06-18T23:58:48.862Z,10.07
